Time;durP1;ratioP1;P1;durP2;ratioP2;P2;SDS_P1;SDS_P2;PMS_P1;PMS_P2;Temp;Humidity;BMP_temperature;BMP_pressure;BME280_temperature;BME280_humidity;BME280_pressure;Samples;Min_cycle;Max_cycle;Signal;HPM_P1;HPM_P2
2022/01/05 00:00:32;;;;;;;42.58;25.70;;;;;;;7.93;78.29;100435.13;5029300;28;20123;-74
2022/01/05 00:02:59;;;;;;;45.00;24.60;;;;;;;7.94;78.24;100428.97;5032333;28;20630;-69
2022/01/05 00:05:28;;;;;;;42.63;25.52;;;;;;;7.93;78.35;100412.44;5032447;28;20049;-66
2022/01/05 00:07:58;;;;;;;43.75;24.50;;;;;;;7.94;78.30;100398.47;5031172;28;20124;-70
2022/01/05 00:10:24;;;;;;;39.17;24.75;;;;;;;7.93;78.18;100402.00;5031399;28;20096;-69
2022/01/05 00:12:51;;;;;;;42.05;25.27;;;;;;;7.93;78.20;100386.31;5031905;28;20041;-74
2022/01/05 00:15:18;;;;;;;39.72;24.75;;;;;;;7.93;78.28;100368.03;5032332;28;20049;-74
2022/01/05 00:17:44;;;;;;;44.22;25.67;;;;;;;7.94;78.21;100374.13;5031917;28;20444;-71
2022/01/05 00:20:11;;;;;;;41.38;24.92;;;;;;;7.93;78.38;100373.25;5032213;28;20045;-71
2022/01/05 00:22:38;;;;;;;43.00;26.17;;;;;;;7.93;78.29;100369.81;5031921;28;20060;-67
2022/01/05 00:25:05;;;;;;;47.22;27.45;;;;;;;7.94;78.25;100363.66;5032002;28;20199;-74
2022/01/05 00:27:32;;;;;;;46.55;27.13;;;;;;;7.94;78.40;100351.44;5031067;28;20045;-74
2022/01/05 00:29:59;;;;;;;45.00;26.90;;;;;;;7.96;78.22;100354.81;5031922;28;20045;-74
2022/01/05 00:32:25;;;;;;;46.10;28.02;;;;;;;7.96;78.31;100356.56;5032023;28;20049;-73
2022/01/05 00:34:52;;;;;;;43.95;26.92;;;;;;;7.93;78.41;100352.34;5031443;28;20060;-74
2022/01/05 00:37:20;;;;;;;45.00;26.73;;;;;;;7.93;78.33;100344.50;5031977;28;20466;-71
2022/01/05 00:39:46;;;;;;;44.75;27.73;;;;;;;7.93;78.36;100349.75;5031735;28;20045;-74
2022/01/05 00:42:14;;;;;;;43.08;27.60;;;;;;;7.93;78.37;100360.19;5031920;28;20096;-74
2022/01/05 00:44:40;;;;;;;47.33;28.25;;;;;;;7.95;78.50;100363.59;5030713;28;20107;-75
2022/01/05 00:47:07;;;;;;;44.60;27.60;;;;;;;7.98;78.37;100357.34;5031687;28;20045;-69
2022/01/05 00:49:34;;;;;;;44.85;26.95;;;;;;;7.97;78.28;100329.53;5031452;28;20562;-67
2022/01/05 00:52:01;;;;;;;45.55;28.15;;;;;;;7.94;78.30;100301.78;5031993;28;20124;-69
2022/01/05 00:54:28;;;;;;;45.55;28.33;;;;;;;7.94;78.51;100300.97;5032172;28;20096;-67
2022/01/05 00:56:54;;;;;;;45.47;27.48;;;;;;;7.95;78.40;100305.28;5031976;28;20107;-75
2022/01/05 00:59:21;;;;;;;43.20;27.45;;;;;;;7.98;78.33;100302.47;5030898;28;20104;-75
2022/01/05 01:01:47;;;;;;;44.90;26.33;;;;;;;7.96;78.29;100299.97;5031508;28;20050;-75
2022/01/05 01:04:14;;;;;;;41.88;28.25;;;;;;;7.95;78.27;100300.03;5031885;28;20049;-75
2022/01/05 01:06:41;;;;;;;47.28;28.52;;;;;;;7.93;78.35;100294.88;5031434;28;20041;-73
2022/01/05 01:09:08;;;;;;;47.17;27.58;;;;;;;7.95;78.29;100298.25;5031453;28;20092;-69
2022/01/05 01:11:35;;;;;;;45.13;28.00;;;;;;;7.94;78.33;100293.97;5031698;28;20053;-73
2022/01/05 01:14:01;;;;;;;41.60;27.13;;;;;;;7.95;78.35;100294.81;5031449;28;20065;-74
2022/01/05 01:16:28;;;;;;;45.95;27.58;;;;;;;7.96;78.27;100304.31;5030799;28;20057;-75
2022/01/05 01:18:55;;;;;;;45.28;27.20;;;;;;;7.96;78.34;100314.78;5031536;28;20056;-70
2022/01/05 01:21:22;;;;;;;44.10;25.00;;;;;;;7.95;78.47;100319.16;5031707;28;20407;-71
2022/01/05 01:23:55;;;;;;;43.75;26.10;;;;;;;7.95;78.33;100311.31;5031400;28;20045;-67
2022/01/05 01:26:30;;;;;;;44.72;26.88;;;;;;;7.96;78.25;100307.78;5033975;28;20045;-66
2022/01/05 01:28:57;;;;;;;44.63;26.20;;;;;;;7.94;78.59;100308.81;5035202;28;20091;-69
2022/01/05 01:31:25;;;;;;;43.85;27.48;;;;;;;7.97;78.31;100308.63;5034999;28;20447;-74
2022/01/05 01:33:52;;;;;;;44.03;27.20;;;;;;;7.97;78.52;100312.09;5034118;28;20068;-69
2022/01/05 01:36:18;;;;;;;46.33;27.58;;;;;;;7.96;78.30;100313.03;5034654;28;20041;-75
2022/01/05 01:38:45;;;;;;;41.92;26.77;;;;;;;7.96;78.64;100304.31;5034872;28;20111;-74
2022/01/05 01:41:13;;;;;;;39.47;25.42;;;;;;;7.96;78.53;100299.97;5034842;28;20068;-68
2022/01/05 01:43:39;;;;;;;40.88;25.55;;;;;;;7.97;78.35;100293.81;5034963;28;20084;-67
2022/01/05 01:46:08;;;;;;;43.33;25.45;;;;;;;7.96;78.36;100297.34;5034743;28;20079;-69
2022/01/05 01:48:35;;;;;;;42.08;25.27;;;;;;;7.97;78.40;100293.81;5034792;28;20496;-74
2022/01/05 01:51:02;;;;;;;42.00;25.23;;;;;;;7.98;78.26;100295.47;5033560;28;20053;-74
2022/01/05 01:53:29;;;;;;;38.50;25.35;;;;;;;7.99;78.22;100289.31;5034615;28;20046;-67
2022/01/05 01:55:59;;;;;;;40.15;24.52;;;;;;;7.97;78.38;100298.19;5034786;28;20045;-74
2022/01/05 01:58:32;;;;;;;43.65;25.70;;;;;;;7.97;78.49;100292.94;5034695;28;20045;-74
2022/01/05 02:00:59;;;;;;;40.13;25.02;;;;;;;7.97;78.39;100285.09;5034547;28;20045;-71
2022/01/05 02:03:25;;;;;;;44.35;24.85;;;;;;;7.99;78.37;100297.16;5034433;28;20095;-72
2022/01/05 02:05:52;;;;;;;44.17;25.08;;;;;;;7.97;78.27;100283.34;5034701;28;20041;-69
2022/01/05 02:08:19;;;;;;;39.95;26.02;;;;;;;7.95;78.28;100293.03;5032156;28;20119;-75
2022/01/05 02:10:46;;;;;;;42.38;25.33;;;;;;;7.96;78.46;100296.47;5034337;28;20046;-72
2022/01/05 02:13:13;;;;;;;42.90;25.83;;;;;;;7.95;78.34;100271.31;5034447;28;20046;-74
2022/01/05 02:15:43;;;;;;;47.03;26.50;;;;;;;7.97;78.43;100262.47;5034600;28;20057;-75
2022/01/05 02:18:57;;;;;;;44.55;25.48;;;;;;;7.97;78.29;100240.69;5034416;28;20053;-67
2022/01/05 02:21:00;;;;;;;47.47;27.75;;;;;;;7.97;78.29;100231.09;5034184;28;20096;-74
2022/01/05 02:23:27;;;;;;;45.60;26.15;;;;;;;7.97;78.43;100236.34;5034211;28;20519;-74
2022/01/05 02:25:54;;;;;;;45.97;26.42;;;;;;;7.95;78.27;100230.34;5032900;28;20645;-70
2022/01/05 02:28:21;;;;;;;44.30;26.45;;;;;;;7.95;78.31;100226.88;5034168;28;20053;-75
2022/01/05 02:30:54;;;;;;;44.47;25.13;;;;;;;7.95;78.46;100222.50;5033938;28;20413;-68
2022/01/05 02:33:22;;;;;;;46.83;27.20;;;;;;;7.95;78.11;100230.34;5034134;28;20444;-74
2022/01/05 02:35:49;;;;;;;45.75;26.42;;;;;;;7.94;77.94;100205.13;5033499;28;20045;-74
2022/01/05 02:38:20;;;;;;;44.10;24.88;;;;;;;7.94;78.34;100204.28;5033793;28;20119;-74
2022/01/05 02:40:49;;;;;;;40.90;24.10;;;;;;;7.94;78.21;100199.91;5033887;28;20050;-74
2022/01/05 02:43:16;;;;;;;41.47;24.65;;;;;;;7.94;78.35;100188.63;5032783;28;20050;-69
2022/01/05 02:45:43;;;;;;;43.53;25.42;;;;;;;7.91;78.49;100167.88;5033778;28;20068;-67
2022/01/05 02:48:10;;;;;;;42.03;25.30;;;;;;;7.88;78.48;100163.66;5033922;28;20099;-75
2022/01/05 02:50:36;;;;;;;45.95;25.00;;;;;;;7.90;78.34;100153.13;5033534;28;20389;-67
2022/01/05 02:53:03;;;;;;;44.10;25.42;;;;;;;7.89;78.11;100134.00;5033402;28;20104;-75
2022/01/05 02:55:30;;;;;;;39.50;23.73;;;;;;;7.88;78.41;100114.03;5033545;28;20561;-69
2022/01/05 02:57:56;;;;;;;42.28;25.25;;;;;;;7.89;78.31;100113.09;5033476;28;20451;-69
2022/01/05 03:00:23;;;;;;;45.22;25.75;;;;;;;7.89;78.27;100113.09;5032554;28;20092;-73
2022/01/05 03:02:49;;;;;;;42.92;24.75;;;;;;;7.91;78.21;100124.31;5033610;28;20045;-71
2022/01/05 03:05:16;;;;;;;44.92;25.20;;;;;;;7.90;78.31;100125.25;5033577;28;20096;-75
2022/01/05 03:07:43;;;;;;;40.92;24.83;;;;;;;7.89;78.39;100125.34;5033380;28;20072;-72
2022/01/05 03:10:13;;;;;;;43.47;24.00;;;;;;;7.90;78.43;100121.78;5033358;28;20060;-74
2022/01/05 03:12:41;;;;;;;42.92;23.80;;;;;;;7.91;78.17;100128.69;5033207;28;20041;-67
2022/01/05 03:15:09;;;;;;;47.10;25.27;;;;;;;7.91;78.26;100128.69;5032208;28;20111;-67
2022/01/05 03:17:35;;;;;;;40.20;24.10;;;;;;;7.89;78.18;100122.72;5033071;28;20053;-74
2022/01/05 03:20:03;;;;;;;41.25;24.35;;;;;;;7.88;78.31;100102.75;5032985;28;20041;-74
2022/01/05 03:22:29;;;;;;;41.95;23.83;;;;;;;7.85;78.28;100088.09;5032870;28;20049;-71
2022/01/05 03:24:56;;;;;;;39.05;23.00;;;;;;;7.83;78.36;100076.88;5033094;28;20042;-74
2022/01/05 03:27:23;;;;;;;41.28;23.52;;;;;;;7.88;78.34;100085.28;5033033;28;20042;-74
2022/01/05 03:29:49;;;;;;;39.30;24.08;;;;;;;7.86;78.46;100084.56;5018191;28;20503;-74
2022/01/05 03:32:16;;;;;;;39.67;23.40;;;;;;;7.89;78.31;100081.75;5032878;28;20554;-73
2022/01/05 03:34:45;;;;;;;39.33;22.08;;;;;;;7.87;78.24;100070.53;5032424;28;20045;-75
2022/01/05 03:37:11;;;;;;;39.85;23.30;;;;;;;7.87;78.33;100051.44;5032860;28;20103;-75
2022/01/05 03:39:38;;;;;;;37.55;22.83;;;;;;;7.83;78.51;100043.78;5032528;28;20121;-69
2022/01/05 03:42:05;;;;;;;40.90;23.27;;;;;;;7.88;78.33;100058.34;5032794;28;20061;-74
2022/01/05 03:44:32;;;;;;;37.83;23.75;;;;;;;7.87;78.21;100060.09;5032785;28;20450;-71
2022/01/05 03:46:59;;;;;;;34.88;21.73;;;;;;;7.85;78.21;100044.50;5031684;28;20091;-67
2022/01/05 03:49:25;;;;;;;37.15;21.92;;;;;;;7.85;78.24;100049.75;5031948;28;20458;-75
2022/01/05 03:51:52;;;;;;;33.47;20.13;;;;;;;7.88;78.47;100060.94;5032497;28;20057;-74
2022/01/05 03:54:19;;;;;;;37.97;21.83;;;;;;;7.90;78.27;100074.75;5032477;28;20045;-68
2022/01/05 03:56:46;;;;;;;36.33;21.95;;;;;;;7.90;78.17;100059.94;5032304;28;20484;-68
2022/01/05 03:59:12;;;;;;;35.63;20.25;;;;;;;7.89;78.40;100049.59;5032692;28;20099;-73
2022/01/05 04:01:39;;;;;;;31.50;19.55;;;;;;;7.91;78.23;100066.84;5032433;28;20049;-73
2022/01/05 04:04:05;;;;;;;33.33;20.50;;;;;;;7.91;78.10;100045.09;5026543;28;20389;-75
2022/01/05 04:06:32;;;;;;;34.97;19.80;;;;;;;7.93;78.20;100041.47;5028630;28;20045;-67
2022/01/05 04:08:59;;;;;;;32.67;20.10;;;;;;;7.92;78.19;100023.28;5028744;28;20049;-74
2022/01/05 04:11:25;;;;;;;32.92;20.58;;;;;;;7.91;78.32;100035.50;5028940;28;20049;-73
2022/01/05 04:13:52;;;;;;;33.50;19.23;;;;;;;7.95;78.28;100026.56;5028581;28;20076;-73
2022/01/05 04:16:18;;;;;;;30.40;19.05;;;;;;;7.94;78.22;100009.19;5028858;28;20050;-71
2022/01/05 04:18:45;;;;;;;32.58;20.05;;;;;;;7.92;78.31;100003.22;5027451;28;20496;-67
2022/01/05 04:21:13;;;;;;;31.15;20.17;;;;;;;7.94;78.27;100029.25;5028897;28;20045;-67
2022/01/05 04:23:40;;;;;;;32.85;19.85;;;;;;;7.95;78.33;100033.56;5028840;28;20092;-74
2022/01/05 04:26:06;;;;;;;30.15;18.67;;;;;;;7.95;78.23;100034.41;5028874;28;20060;-73
2022/01/05 04:28:35;;;;;;;30.65;18.90;;;;;;;7.95;78.38;100029.16;5028691;28;20049;-75
2022/01/05 04:31:01;;;;;;;34.40;19.63;;;;;;;7.96;78.18;100012.56;5028647;28;20045;-75
2022/01/05 04:33:28;;;;;;;30.70;18.30;;;;;;;7.95;78.27;100008.28;5028403;28;20103;-74
2022/01/05 04:36:14;;;;;;;35.17;19.80;;;;;;;7.96;78.22;100009.09;5027052;28;20129;-68
2022/01/05 04:38:41;;;;;;;32.17;18.83;;;;;;;7.99;78.27;100022.81;5028388;28;20057;-71
2022/01/05 04:41:08;;;;;;;31.98;18.35;;;;;;;8.00;78.16;100016.69;5027994;28;20046;-67
2022/01/05 04:43:34;;;;;;;30.95;18.63;;;;;;;8.00;78.10;100013.25;5028709;28;20052;-75
2022/01/05 04:46:01;;;;;;;36.83;19.67;;;;;;;8.00;78.02;100015.84;5028227;28;20049;-66
2022/01/05 04:48:29;;;;;;;38.33;20.40;;;;;;;8.03;77.89;100013.03;5028451;28;20535;-74
2022/01/05 04:50:55;;;;;;;35.35;19.00;;;;;;;8.03;77.95;100013.03;5027203;28;20045;-71
2022/01/05 04:53:22;;;;;;;39.53;19.90;;;;;;;8.01;77.96;100014.91;5028196;28;20049;-67
2022/01/05 04:55:48;;;;;;;36.38;19.75;;;;;;;8.03;77.94;100015.66;5028190;28;20053;-72
2022/01/05 04:58:15;;;;;;;33.90;19.95;;;;;;;8.04;77.85;100016.50;5028525;28;20407;-73
2022/01/05 05:00:42;;;;;;;34.47;20.88;;;;;;;8.04;77.79;100006.91;5030270;28;20041;-74
2022/01/05 05:03:08;;;;;;;36.40;19.45;;;;;;;8.05;77.75;100002.50;5032007;28;20458;-71
2022/01/05 05:05:35;;;;;;;36.40;20.73;;;;;;;8.05;77.83;99997.28;5032165;28;20511;-75
2022/01/05 05:08:03;;;;;;;32.38;20.10;;;;;;;8.04;77.88;99990.34;5031391;28;20075;-75
2022/01/05 05:10:29;;;;;;;32.17;18.95;;;;;;;8.06;77.82;99989.34;5032255;28;20045;-67
2022/01/05 05:12:56;;;;;;;32.58;18.13;;;;;;;8.06;77.82;99980.66;5032415;28;20049;-74
2022/01/05 05:15:23;;;;;;;29.33;17.42;;;;;;;8.05;77.89;99976.38;5032110;28;20049;-67
2022/01/05 05:17:50;;;;;;;31.13;17.67;;;;;;;8.03;77.95;99976.47;5031732;28;20075;-74
2022/01/05 05:20:17;;;;;;;32.00;17.48;;;;;;;8.07;77.81;99974.53;5032073;28;20046;-71
2022/01/05 05:22:43;;;;;;;29.05;17.13;;;;;;;8.07;77.84;99975.34;5030734;28;20056;-67
2022/01/05 05:25:10;;;;;;;25.75;15.88;;;;;;;8.07;77.93;99975.34;5032354;28;20049;-72
2022/01/05 05:27:37;;;;;;;24.67;15.23;;;;;;;8.07;78.08;99961.47;5031794;28;20049;-67
2022/01/05 05:30:22;;;;;;;24.73;14.07;;;;;;;8.08;78.09;99952.69;5032071;28;20049;-67
2022/01/05 05:32:49;;;;;;;24.55;14.70;;;;;;;8.09;77.95;99957.00;5032066;28;20076;-75
2022/01/05 05:35:16;;;;;;;22.60;13.80;;;;;;;8.10;78.08;99959.50;5031221;28;20491;-75
2022/01/05 05:37:43;;;;;;;22.90;13.73;;;;;;;8.12;78.15;99946.34;5032044;28;20115;-70
2022/01/05 05:40:10;;;;;;;20.85;12.73;;;;;;;8.11;78.05;99940.28;5031940;28;20138;-68
2022/01/05 05:42:37;;;;;;;20.75;12.07;;;;;;;8.10;78.17;99909.88;5032417;28;20091;-67
2022/01/05 05:45:04;;;;;;;20.05;11.23;;;;;;;8.10;78.07;99914.22;5031999;28;20569;-67
2022/01/05 05:47:31;;;;;;;17.08;11.10;;;;;;;8.10;78.19;99920.31;5031763;28;20045;-67
2022/01/05 05:49:57;;;;;;;18.65;10.05;;;;;;;8.09;78.22;99918.63;5031303;28;20049;-74
2022/01/05 05:52:24;;;;;;;17.38;10.77;;;;;;;8.11;78.39;99910.69;5031658;28;20052;-69
2022/01/05 05:54:52;;;;;;;19.90;10.45;;;;;;;8.13;78.32;99916.69;5031262;28;20046;-66
2022/01/05 05:57:38;;;;;;;16.70;10.27;;;;;;;8.14;78.32;99913.13;5030657;28;20130;-74
2022/01/05 06:00:12;;;;;;;18.13;10.30;;;;;;;8.13;78.31;99911.44;5029830;28;20107;-68
2022/01/05 06:02:53;;;;;;;16.40;10.50;;;;;;;8.14;78.47;99910.53;5031115;28;20054;-67
2022/01/05 06:05:25;;;;;;;18.08;10.65;;;;;;;8.15;78.54;99912.19;5030758;28;20056;-74
2022/01/05 06:07:52;;;;;;;17.50;11.05;;;;;;;8.16;78.39;99911.25;5030840;28;20046;-74
2022/01/05 06:10:19;;;;;;;17.00;10.65;;;;;;;8.17;78.31;99903.31;5031333;28;20046;-70
2022/01/05 06:12:45;;;;;;;17.00;10.82;;;;;;;8.18;78.70;99905.00;5030227;28;20042;-74
2022/01/05 06:15:12;;;;;;;19.65;12.02;;;;;;;8.19;78.43;99905.84;5030068;28;20045;-73
2022/01/05 06:17:39;;;;;;;17.42;10.98;;;;;;;8.19;78.49;99921.53;5031096;28;20055;-66
2022/01/05 06:20:07;;;;;;;20.52;11.77;;;;;;;8.21;78.58;99918.81;5031324;28;20111;-74
2022/01/05 06:22:37;;;;;;;17.17;10.30;;;;;;;8.21;78.48;99922.25;5030709;28;20049;-73
2022/01/05 06:25:04;;;;;;;17.73;10.88;;;;;;;8.21;78.65;99914.44;5030524;28;20053;-74
2022/01/05 06:27:30;;;;;;;18.60;11.63;;;;;;;8.22;78.61;99916.13;5030537;28;20104;-68
2022/01/05 06:29:57;;;;;;;19.08;11.05;;;;;;;8.23;78.65;99920.41;5029595;28;20439;-67
2022/01/05 06:32:24;;;;;;;22.27;12.68;;;;;;;8.24;78.49;99903.81;5030767;28;20442;-74
2022/01/05 06:34:50;;;;;;;19.80;12.10;;;;;;;8.22;78.57;99895.19;5030163;28;20095;-66
2022/01/05 06:37:18;;;;;;;19.27;11.05;;;;;;;8.22;78.56;99889.97;5030330;28;20452;-66
2022/01/05 06:39:45;;;;;;;22.65;12.00;;;;;;;8.21;78.58;99885.69;5030192;28;20120;-70
2022/01/05 06:42:11;;;;;;;19.55;11.52;;;;;;;8.24;78.62;99889.88;5030487;28;20461;-67
2022/01/05 06:44:38;;;;;;;19.92;12.25;;;;;;;8.23;78.62;99881.22;5030411;28;20107;-69
2022/01/05 06:47:05;;;;;;;19.75;11.35;;;;;;;8.23;78.65;99877.75;5029365;28;20049;-70
2022/01/05 06:49:32;;;;;;;18.65;11.23;;;;;;;8.26;78.66;99882.78;5030043;28;20050;-74
2022/01/05 06:51:58;;;;;;;17.80;11.32;;;;;;;8.25;78.52;99881.97;5030306;28;20041;-73
2022/01/05 06:54:25;;;;;;;19.55;11.35;;;;;;;8.25;78.69;99879.34;5030300;28;20046;-74
2022/01/05 06:56:52;;;;;;;15.48;10.35;;;;;;;8.26;78.73;99886.25;5029775;28;20042;-66
2022/01/05 06:59:24;;;;;;;16.75;10.00;;;;;;;8.26;78.58;99875.78;5030136;28;20140;-74
2022/01/05 07:01:50;;;;;;;13.40;9.95;;;;;;;8.27;78.82;99880.09;5029874;28;20049;-67
2022/01/05 07:04:17;;;;;;;15.55;9.85;;;;;;;8.30;78.72;99877.31;5028938;28;20049;-67
2022/01/05 07:06:44;;;;;;;12.60;8.98;;;;;;;8.31;78.69;99883.34;5029967;28;20046;-67
2022/01/05 07:09:10;;;;;;;14.35;9.07;;;;;;;8.34;78.73;99877.94;5029885;28;20046;-70
2022/01/05 07:11:38;;;;;;;15.02;9.20;;;;;;;8.35;78.70;99877.00;5030136;28;20053;-66
2022/01/05 07:14:05;;;;;;;14.13;9.18;;;;;;;8.37;78.76;99882.97;5029702;28;20060;-74
2022/01/05 07:16:32;;;;;;;13.25;8.73;;;;;;;8.37;78.69;99877.75;5029915;28;20454;-67
2022/01/05 07:18:58;;;;;;;13.50;8.43;;;;;;;8.38;78.71;99874.22;5028710;28;20484;-74
2022/01/05 07:21:25;;;;;;;14.60;8.73;;;;;;;8.39;78.80;99883.72;5029597;28;20121;-70
2022/01/05 07:23:51;;;;;;;13.43;8.55;;;;;;;8.41;78.65;99865.34;5028990;28;20045;-74
2022/01/05 07:26:18;;;;;;;11.30;7.53;;;;;;;8.38;78.67;99855.91;5029456;28;20488;-75
2022/01/05 07:28:45;;;;;;;10.77;7.28;;;;;;;8.40;78.98;99856.63;5029365;28;20156;-75
2022/01/05 07:31:11;;;;;;;11.90;7.90;;;;;;;8.41;78.89;99866.16;5029551;28;20049;-73
2022/01/05 07:33:38;;;;;;;10.77;6.95;;;;;;;8.44;78.80;99873.84;5029926;28;20091;-70
2022/01/05 07:36:04;;;;;;;11.30;7.13;;;;;;;8.44;78.70;99866.00;5028333;28;20354;-69
2022/01/05 07:38:31;;;;;;;11.70;7.60;;;;;;;8.46;78.86;99860.69;5029301;28;20065;-68
2022/01/05 07:40:58;;;;;;;12.90;7.43;;;;;;;8.47;78.95;99865.81;5028950;28;20050;-75
2022/01/05 07:43:25;;;;;;;10.77;7.15;;;;;;;8.45;78.69;99859.81;5029372;28;20053;-67
2022/01/05 07:45:51;;;;;;;13.10;7.38;;;;;;;8.46;78.72;99858.91;5029115;28;20057;-67
2022/01/05 07:48:18;;;;;;;9.60;6.93;;;;;;;8.49;78.74;99868.34;5029215;28;20050;-75
2022/01/05 07:50:45;;;;;;;12.57;7.40;;;;;;;8.50;78.47;99867.41;5026597;28;20364;-67
2022/01/05 07:53:11;;;;;;;9.43;7.07;;;;;;;8.50;78.66;99872.63;5029074;28;20041;-74
2022/01/05 07:55:38;;;;;;;16.65;10.13;;;;;;;8.52;78.74;99872.53;5029213;28;20053;-67
2022/01/05 07:58:06;;;;;;;12.60;7.65;;;;;;;8.53;78.65;99874.22;5028925;28;20538;-74
2022/01/05 08:00:35;;;;;;;9.88;7.25;;;;;;;8.52;78.74;99872.53;5029383;28;20084;-74
2022/01/05 08:03:01;;;;;;;12.95;8.15;;;;;;;8.54;78.69;99875.91;5028920;28;20506;-75
2022/01/05 08:05:28;;;;;;;9.32;6.20;;;;;;;8.56;78.69;99871.41;5028856;28;20072;-67
2022/01/05 08:07:55;;;;;;;10.05;6.82;;;;;;;8.55;78.66;99870.56;5027834;28;20048;-74
2022/01/05 08:10:21;;;;;;;8.95;6.55;;;;;;;8.54;78.71;99887.19;5028777;28;20496;-68
2022/01/05 08:12:48;;;;;;;10.65;6.68;;;;;;;8.55;78.64;99864.50;5028667;28;20404;-67
2022/01/05 08:15:15;;;;;;;10.30;7.03;;;;;;;8.56;78.70;99869.63;5029054;28;20053;-75
2022/01/05 08:17:42;;;;;;;11.75;7.45;;;;;;;8.58;78.64;99862.56;5028862;28;20087;-68
2022/01/05 08:20:11;;;;;;;15.73;8.63;;;;;;;8.59;78.57;99866.00;5028839;28;20053;-75
2022/01/05 08:22:42;;;;;;;16.45;9.80;;;;;;;8.60;78.65;99875.53;5028910;28;20046;-68
2022/01/05 08:25:10;;;;;;;14.13;9.80;;;;;;;8.61;78.55;99885.88;5028051;28;20053;-75
2022/01/05 08:27:45;;;;;;;17.65;10.15;;;;;;;8.60;78.75;99873.72;5028551;28;20088;-73
2022/01/05 08:30:21;;;;;;;14.88;9.20;;;;;;;8.62;78.79;99865.78;5028251;28;20053;-68
2022/01/05 08:32:48;;;;;;;16.37;8.27;;;;;;;8.63;78.79;99862.25;5025623;28;20105;-72
2022/01/05 08:35:17;;;;;;;18.45;13.25;;;;;;;8.66;78.67;99857.66;5028072;28;20081;-75
2022/01/05 08:37:44;;;;;;;16.30;9.57;;;;;;;8.67;78.69;99850.66;5028183;28;20053;-67
2022/01/05 08:40:15;;;;;;;9.70;6.55;;;;;;;8.70;78.59;99847.84;5028743;28;20193;-74
2022/01/05 08:42:43;;;;;;;9.50;6.38;;;;;;;8.74;78.68;99845.88;5028381;28;20049;-67
2022/01/05 08:45:11;;;;;;;10.73;6.35;;;;;;;8.75;78.37;99834.50;5028603;28;20045;-67
2022/01/05 08:47:37;;;;;;;9.85;6.63;;;;;;;8.77;78.55;99828.22;5028738;28;20045;-72
2022/01/05 08:50:05;;;;;;;10.95;7.88;;;;;;;8.75;78.44;99824.03;5026929;28;20049;-74
2022/01/05 08:52:31;;;;;;;16.15;10.13;;;;;;;8.77;78.52;99822.13;5028138;28;20115;-74
2022/01/05 08:54:58;;;;;;;17.35;10.77;;;;;;;8.82;78.36;99828.78;5028390;28;20045;-74
2022/01/05 08:57:25;;;;;;;16.55;9.90;;;;;;;8.84;78.43;99828.66;5028206;28;20046;-69
2022/01/05 08:59:51;;;;;;;11.07;7.65;;;;;;;8.83;78.33;99817.34;5024056;28;20503;-70
2022/01/05 09:02:18;;;;;;;11.27;7.88;;;;;;;8.90;78.19;99819.56;5028041;28;20111;-70
2022/01/05 09:04:48;;;;;;;14.68;8.88;;;;;;;8.93;78.09;99814.97;5026565;28;20082;-68
2022/01/05 09:07:15;;;;;;;14.10;8.30;;;;;;;8.96;78.04;99827.03;5027621;28;20115;-71
2022/01/05 09:09:41;;;;;;;12.00;7.93;;;;;;;8.97;78.11;99834.75;5028132;28;20046;-68
2022/01/05 09:12:09;;;;;;;11.88;8.02;;;;;;;8.95;78.18;99828.81;5027679;28;20104;-76
2022/01/05 09:14:36;;;;;;;12.88;7.22;;;;;;;8.94;78.18;99837.59;5028233;28;20096;-68
2022/01/05 09:17:04;;;;;;;13.85;8.38;;;;;;;8.93;78.22;99835.09;5023940;28;20072;-73
2022/01/05 09:19:31;;;;;;;13.52;8.63;;;;;;;8.93;78.33;99833.28;5027812;28;20045;-70
2022/01/05 09:21:57;;;;;;;13.25;8.57;;;;;;;8.94;78.31;99814.03;5026832;28;20068;-72
2022/01/05 09:24:44;;;;;;;13.02;8.13;;;;;;;8.97;78.31;99828.72;5028051;28;20195;-69
2022/01/05 09:27:10;;;;;;;13.25;7.78;;;;;;;8.95;78.26;99839.28;5028033;28;20072;-73
2022/01/05 09:29:40;;;;;;;25.38;15.95;;;;;;;8.95;78.40;99836.66;5028133;28;20483;-71
2022/01/05 09:32:09;;;;;;;16.42;10.68;;;;;;;8.95;78.10;99836.66;5028222;28;20077;-69
2022/01/05 09:34:37;;;;;;;13.57;9.20;;;;;;;8.94;78.44;99837.59;5027529;28;20037;-74
2022/01/05 09:37:12;;;;;;;11.50;7.35;;;;;;;8.95;78.42;99831.44;5027761;28;20041;-73
2022/01/05 09:42:24;;;;;;;9.65;7.10;;;;;;;8.98;78.48;99846.09;5027658;28;20484;-69
2022/01/05 09:44:52;;;;;;;11.10;7.45;;;;;;;8.99;78.49;99837.31;5025502;28;20091;-70
2022/01/05 09:47:37;;;;;;;44.08;20.00;;;;;;;9.00;78.39;99825.88;5024091;28;20046;-69
2022/01/05 09:50:10;;;;;;;40.25;17.77;;;;;;;8.99;78.59;99839.94;5029216;28;20088;-74
2022/01/05 09:52:39;;;;;;;25.25;12.20;;;;;;;8.98;78.68;99846.91;5026820;28;20046;-68
2022/01/05 09:55:08;;;;;;;22.20;12.32;;;;;;;8.97;78.74;99857.50;5030873;28;20050;-68
2022/01/05 09:57:37;;;;;;;15.52;9.75;;;;;;;8.95;79.34;99844.50;5030911;28;20071;-69
2022/01/05 10:00:05;;;;;;;15.48;10.73;;;;;;;8.95;78.90;99849.75;5030467;28;20053;-75
2022/01/05 10:02:31;;;;;;;23.67;14.75;;;;;;;8.96;78.95;99842.72;5030702;28;20053;-67
2022/01/05 10:04:58;;;;;;;18.83;13.25;;;;;;;8.93;79.19;99843.75;5028543;28;20041;-71
2022/01/05 10:07:25;;;;;;;129.23;83.90;;;;;;;8.92;79.36;99833.41;5030800;28;20402;-68
2022/01/05 10:09:52;;;;;;;70.53;47.17;;;;;;;8.94;79.35;99842.81;5029405;28;20160;-70
2022/01/05 10:12:20;;;;;;;50.60;33.30;;;;;;;8.95;79.43;99844.50;5030402;28;20053;-71
2022/01/05 10:14:48;;;;;;;53.17;36.88;;;;;;;8.89;79.49;99863.22;5030751;28;20107;-71
2022/01/05 10:17:23;;;;;;;38.90;25.63;;;;;;;8.84;79.50;99854.81;5030505;28;20625;-67
2022/01/05 10:19:57;;;;;;;42.20;23.45;;;;;;;8.85;79.72;99850.41;5030573;28;20053;-66
2022/01/05 10:22:44;;;;;;;37.30;19.88;;;;;;;8.78;79.92;99849.97;5030337;28;20095;-75
2022/01/05 10:25:17;;;;;;;45.25;24.38;;;;;;;8.74;80.04;99849.31;5030207;28;20060;-72
2022/01/05 10:27:55;;;;;;;52.67;25.30;;;;;;;8.72;80.21;99848.56;5030108;28;20064;-71
2022/01/05 10:30:34;;;;;;;281.48;153.02;;;;;;;8.69;80.53;99840.94;5029494;28;20115;-67
2022/01/05 10:33:01;;;;;;;108.00;60.75;;;;;;;8.69;80.57;99848.78;5029422;28;20075;-73
2022/01/05 10:35:28;;;;;;;89.20;48.45;;;;;;;8.72;80.35;99845.13;5033082;28;20552;-73
2022/01/05 10:38:00;;;;;;;88.88;50.22;;;;;;;8.73;80.02;99836.34;5037352;28;20049;-68
2022/01/05 10:40:27;;;;;;;72.25;40.05;;;;;;;8.69;80.55;99822.63;5027822;28;20127;-71
2022/01/05 10:42:56;;;;;;;47.72;28.95;;;;;;;8.73;80.73;99812.81;5030221;28;20474;-72
2022/01/05 10:45:37;;;;;;;46.60;25.20;;;;;;;8.80;80.47;99825.41;5035530;28;20041;-75
2022/01/05 10:48:07;;;;;;;69.32;42.80;;;;;;;8.77;80.56;99846.53;5033179;28;20297;-75
2022/01/05 10:50:34;;;;;;;104.45;57.92;;;;;;;8.79;80.55;99847.25;5029047;28;20045;-75
2022/01/05 10:53:02;;;;;;;72.00;41.55;;;;;;;8.82;80.59;99843.59;5040852;28;20049;-69
2022/01/05 10:55:31;;;;;;;35.00;20.48;;;;;;;8.85;80.47;99838.19;5030238;28;20056;-68
2022/01/05 10:58:00;;;;;;;75.50;40.30;;;;;;;8.88;80.48;99835.38;5023757;28;20049;-68
2022/01/05 11:00:38;;;;;;;68.25;37.75;;;;;;;8.89;80.41;99816.13;5029123;28;20103;-71
2022/01/05 11:03:22;;;;;;;47.28;26.10;;;;;;;8.90;80.27;99812.56;5029670;28;20104;-71
2022/01/05 11:06:15;;;;;;;33.17;20.17;;;;;;;8.92;80.25;99807.22;5028331;28;20754;-72
2022/01/05 11:09:09;;;;;;;21.58;14.63;;;;;;;8.94;80.41;99790.50;5027275;28;20080;-69
2022/01/05 11:11:41;;;;;;;22.30;13.45;;;;;;;8.96;80.39;99772.94;5025758;28;20438;-71
2022/01/05 11:14:18;;;;;;;29.65;17.80;;;;;;;9.00;80.38;99763.06;5029731;28;20049;-74
2022/01/05 11:16:47;;;;;;;27.08;16.40;;;;;;;9.02;80.23;99753.34;5020065;28;20045;-67
2022/01/05 11:19:28;;;;;;;32.15;19.40;;;;;;;9.03;80.30;99749.81;5031109;28;20503;-72
2022/01/05 11:22:11;;;;;;;30.92;19.00;;;;;;;9.03;80.39;99747.19;5024352;28;20049;-67
2022/01/05 11:24:43;;;;;;;26.67;18.98;;;;;;;9.01;80.40;99771.78;5029249;28;20042;-68
2022/01/05 11:27:15;;;;;;;29.15;19.98;;;;;;;8.99;80.64;99784.97;5022088;28;20463;-67
2022/01/05 11:29:42;;;;;;;26.90;18.17;;;;;;;8.99;80.49;99790.22;5029263;28;20045;-67
2022/01/05 11:32:12;;;;;;;24.33;17.13;;;;;;;9.02;80.63;99789.16;5029211;28;20095;-68